sensor_id;sensor_type;location;lat;lon;timestamp;temperature;humidity
7290;DHT22;63176;52.678;13.250;2023-09-12T00:00:56;17.90;99.90
7290;DHT22;63176;52.678;13.250;2023-09-12T00:03:23;17.90;99.90
7290;DHT22;63176;52.678;13.250;2023-09-12T00:08:18;18.00;99.90
7290;DHT22;63176;52.678;13.250;2023-09-12T00:10:43;17.90;99.90
7290;DHT22;63176;52.678;13.250;2023-09-12T00:13:09;17.90;99.90
7290;DHT22;63176;52.678;13.250;2023-09-12T00:15:34;17.90;99.90
7290;DHT22;63176;52.678;13.250;2023-09-12T00:18:00;17.90;99.90
7290;DHT22;63176;52.678;13.250;2023-09-12T00:20:26;17.80;99.90
7290;DHT22;63176;52.678;13.250;2023-09-12T00:22:51;17.80;99.90
7290;DHT22;63176;52.678;13.250;2023-09-12T00:25:18;17.80;99.90
7290;DHT22;63176;52.678;13.250;2023-09-12T00:27:44;17.70;99.90
7290;DHT22;63176;52.678;13.250;2023-09-12T00:30:10;17.60;99.90
7290;DHT22;63176;52.678;13.250;2023-09-12T00:32:36;17.60;99.90
7290;DHT22;63176;52.678;13.250;2023-09-12T00:35:01;17.60;99.90
7290;DHT22;63176;52.678;13.250;2023-09-12T00:37:27;17.60;99.90
7290;DHT22;63176;52.678;13.250;2023-09-12T00:39:52;17.60;99.90
7290;DHT22;63176;52.678;13.250;2023-09-12T00:42:19;17.60;99.90
7290;DHT22;63176;52.678;13.250;2023-09-12T00:44:44;17.50;99.90
7290;DHT22;63176;52.678;13.250;2023-09-12T00:47:11;17.40;99.90
7290;DHT22;63176;52.678;13.250;2023-09-12T00:49:38;17.50;99.90
7290;DHT22;63176;52.678;13.250;2023-09-12T00:52:04;17.50;99.90
7290;DHT22;63176;52.678;13.250;2023-09-12T00:54:30;17.40;99.90
7290;DHT22;63176;52.678;13.250;2023-09-12T00:56:56;17.40;99.90
7290;DHT22;63176;52.678;13.250;2023-09-12T00:59:22;17.40;99.90
7290;DHT22;63176;52.678;13.250;2023-09-12T01:01:48;17.30;99.90
7290;DHT22;63176;52.678;13.250;2023-09-12T01:04:14;17.40;99.90
7290;DHT22;63176;52.678;13.250;2023-09-12T01:06:39;17.30;99.90
7290;DHT22;63176;52.678;13.250;2023-09-12T01:09:05;17.30;99.90
7290;DHT22;63176;52.678;13.250;2023-09-12T01:11:31;17.40;99.90
7290;DHT22;63176;52.678;13.250;2023-09-12T01:13:57;17.30;99.90
7290;DHT22;63176;52.678;13.250;2023-09-12T01:16:22;17.20;99.90
7290;DHT22;63176;52.678;13.250;2023-09-12T01:18:48;17.20;99.90
7290;DHT22;63176;52.678;13.250;2023-09-12T01:24:00;17.10;99.90
7290;DHT22;63176;52.678;13.250;2023-09-12T01:26:51;17.10;99.90
7290;DHT22;63176;52.678;13.250;2023-09-12T01:29:21;17.20;99.90
7290;DHT22;63176;52.678;13.250;2023-09-12T01:31:49;17.10;99.90
7290;DHT22;63176;52.678;13.250;2023-09-12T01:34:14;17.10;99.90
7290;DHT22;63176;52.678;13.250;2023-09-12T01:36:40;17.00;99.90
7290;DHT22;63176;52.678;13.250;2023-09-12T01:39:06;17.10;99.90
7290;DHT22;63176;52.678;13.250;2023-09-12T01:41:35;17.10;99.90
7290;DHT22;63176;52.678;13.250;2023-09-12T01:44:04;17.00;99.90
7290;DHT22;63176;52.678;13.250;2023-09-12T01:46:32;17.10;99.90
7290;DHT22;63176;52.678;13.250;2023-09-12T01:49:00;17.10;99.90
7290;DHT22;63176;52.678;13.250;2023-09-12T01:51:28;17.00;99.90
7290;DHT22;63176;52.678;13.250;2023-09-12T01:53:54;17.00;99.90
7290;DHT22;63176;52.678;13.250;2023-09-12T01:56:21;17.00;99.90
7290;DHT22;63176;52.678;13.250;2023-09-12T01:58:47;16.90;99.90
7290;DHT22;63176;52.678;13.250;2023-09-12T02:01:13;17.00;99.90
7290;DHT22;63176;52.678;13.250;2023-09-12T02:03:39;16.90;99.90
7290;DHT22;63176;52.678;13.250;2023-09-12T02:06:05;16.90;99.90
7290;DHT22;63176;52.678;13.250;2023-09-12T02:08:30;16.90;99.90
7290;DHT22;63176;52.678;13.250;2023-09-12T02:10:56;17.00;99.90
7290;DHT22;63176;52.678;13.250;2023-09-12T02:13:21;16.90;99.90
7290;DHT22;63176;52.678;13.250;2023-09-12T02:15:47;16.90;99.90
7290;DHT22;63176;52.678;13.250;2023-09-12T02:18:13;16.90;99.90
7290;DHT22;63176;52.678;13.250;2023-09-12T02:20:40;16.80;99.90
7290;DHT22;63176;52.678;13.250;2023-09-12T02:23:05;16.80;99.90
7290;DHT22;63176;52.678;13.250;2023-09-12T02:25:31;16.80;99.90
7290;DHT22;63176;52.678;13.250;2023-09-12T02:27:57;16.90;99.90
7290;DHT22;63176;52.678;13.250;2023-09-12T02:30:22;16.90;99.90
7290;DHT22;63176;52.678;13.250;2023-09-12T02:32:48;16.80;99.90
7290;DHT22;63176;52.678;13.250;2023-09-12T02:35:13;16.70;99.90
7290;DHT22;63176;52.678;13.250;2023-09-12T02:37:39;16.70;99.90
7290;DHT22;63176;52.678;13.250;2023-09-12T02:40:05;16.70;99.90
7290;DHT22;63176;52.678;13.250;2023-09-12T02:42:31;16.70;99.90
7290;DHT22;63176;52.678;13.250;2023-09-12T02:44:57;16.70;99.90
7290;DHT22;63176;52.678;13.250;2023-09-12T02:47:22;16.70;99.90
7290;DHT22;63176;52.678;13.250;2023-09-12T02:49:48;16.70;99.90
7290;DHT22;63176;52.678;13.250;2023-09-12T02:52:13;16.70;99.90
7290;DHT22;63176;52.678;13.250;2023-09-12T02:54:39;16.60;99.90
7290;DHT22;63176;52.678;13.250;2023-09-12T02:57:05;16.60;99.90
7290;DHT22;63176;52.678;13.250;2023-09-12T02:59:31;16.70;99.90
7290;DHT22;63176;52.678;13.250;2023-09-12T03:01:57;16.70;99.90
7290;DHT22;63176;52.678;13.250;2023-09-12T03:04:25;16.60;99.90
7290;DHT22;63176;52.678;13.250;2023-09-12T03:06:51;16.60;99.90
7290;DHT22;63176;52.678;13.250;2023-09-12T03:09:17;16.60;99.90
7290;DHT22;63176;52.678;13.250;2023-09-12T03:11:43;16.60;99.90
7290;DHT22;63176;52.678;13.250;2023-09-12T03:14:09;16.60;99.90
7290;DHT22;63176;52.678;13.250;2023-09-12T03:16:36;16.60;99.90
7290;DHT22;63176;52.678;13.250;2023-09-12T03:19:03;16.50;99.90
7290;DHT22;63176;52.678;13.250;2023-09-12T03:21:29;16.50;99.90
7290;DHT22;63176;52.678;13.250;2023-09-12T03:23:55;16.50;99.90
7290;DHT22;63176;52.678;13.250;2023-09-12T03:26:20;16.50;99.90
7290;DHT22;63176;52.678;13.250;2023-09-12T03:28:49;16.50;99.90
7290;DHT22;63176;52.678;13.250;2023-09-12T03:31:15;16.50;99.90
7290;DHT22;63176;52.678;13.250;2023-09-12T03:33:42;16.40;99.90
7290;DHT22;63176;52.678;13.250;2023-09-12T03:36:08;16.40;99.90
7290;DHT22;63176;52.678;13.250;2023-09-12T03:38:35;16.40;99.90
7290;DHT22;63176;52.678;13.250;2023-09-12T03:41:01;16.40;99.90
7290;DHT22;63176;52.678;13.250;2023-09-12T03:43:27;16.40;99.90
7290;DHT22;63176;52.678;13.250;2023-09-12T03:45:53;16.40;99.90
7290;DHT22;63176;52.678;13.250;2023-09-12T03:48:19;16.30;99.90
7290;DHT22;63176;52.678;13.250;2023-09-12T03:50:45;16.20;99.90
7290;DHT22;63176;52.678;13.250;2023-09-12T03:53:11;16.30;99.90
7290;DHT22;63176;52.678;13.250;2023-09-12T03:55:37;16.40;99.90
7290;DHT22;63176;52.678;13.250;2023-09-12T03:58:03;16.30;99.90
7290;DHT22;63176;52.678;13.250;2023-09-12T04:00:28;16.30;99.90
7290;DHT22;63176;52.678;13.250;2023-09-12T04:02:54;16.30;99.90
7290;DHT22;63176;52.678;13.250;2023-09-12T04:05:21;16.40;99.90
7290;DHT22;63176;52.678;13.250;2023-09-12T04:07:46;16.30;99.90
7290;DHT22;63176;52.678;13.250;2023-09-12T04:10:13;16.30;99.90
7290;DHT22;63176;52.678;13.250;2023-09-12T04:12:39;16.30;99.90
7290;DHT22;63176;52.678;13.250;2023-09-12T04:15:06;16.20;99.90
7290;DHT22;63176;52.678;13.250;2023-09-12T04:17:31;16.20;99.90
7290;DHT22;63176;52.678;13.250;2023-09-12T04:19:57;16.20;99.90
7290;DHT22;63176;52.678;13.250;2023-09-12T04:22:23;16.10;99.90
7290;DHT22;63176;52.678;13.250;2023-09-12T04:24:48;16.00;99.90
7290;DHT22;63176;52.678;13.250;2023-09-12T04:27:14;16.20;99.90
7290;DHT22;63176;52.678;13.250;2023-09-12T04:29:40;16.30;99.90
7290;DHT22;63176;52.678;13.250;2023-09-12T04:32:05;16.20;99.90
7290;DHT22;63176;52.678;13.250;2023-09-12T04:34:31;16.20;99.90
7290;DHT22;63176;52.678;13.250;2023-09-12T04:36:57;16.20;99.90
7290;DHT22;63176;52.678;13.250;2023-09-12T04:39:23;16.10;99.90
7290;DHT22;63176;52.678;13.250;2023-09-12T04:41:48;16.10;99.90
7290;DHT22;63176;52.678;13.250;2023-09-12T04:44:14;16.00;99.90
7290;DHT22;63176;52.678;13.250;2023-09-12T04:46:39;16.00;99.90
7290;DHT22;63176;52.678;13.250;2023-09-12T04:49:05;16.10;99.90
7290;DHT22;63176;52.678;13.250;2023-09-12T04:51:31;16.30;99.90
7290;DHT22;63176;52.678;13.250;2023-09-12T04:53:56;16.30;99.90
7290;DHT22;63176;52.678;13.250;2023-09-12T04:56:22;16.30;99.90
7290;DHT22;63176;52.678;13.250;2023-09-12T04:58:50;16.30;99.90
7290;DHT22;63176;52.678;13.250;2023-09-12T05:01:15;16.30;99.90
7290;DHT22;63176;52.678;13.250;2023-09-12T05:03:42;16.30;99.90
7290;DHT22;63176;52.678;13.250;2023-09-12T05:06:08;16.40;99.90
7290;DHT22;63176;52.678;13.250;2023-09-12T05:08:33;16.40;99.90
7290;DHT22;63176;52.678;13.250;2023-09-12T05:10:59;16.40;99.90
7290;DHT22;63176;52.678;13.250;2023-09-12T05:13:24;16.40;99.90
7290;DHT22;63176;52.678;13.250;2023-09-12T05:15:50;16.40;99.90
7290;DHT22;63176;52.678;13.250;2023-09-12T05:18:16;16.40;99.90
7290;DHT22;63176;52.678;13.250;2023-09-12T05:20:41;16.50;99.90
7290;DHT22;63176;52.678;13.250;2023-09-12T05:23:07;16.50;99.90
7290;DHT22;63176;52.678;13.250;2023-09-12T05:25:32;16.50;99.90
7290;DHT22;63176;52.678;13.250;2023-09-12T05:27:58;16.60;99.90
7290;DHT22;63176;52.678;13.250;2023-09-12T05:30:24;16.60;99.90
7290;DHT22;63176;52.678;13.250;2023-09-12T05:32:49;16.70;99.90
7290;DHT22;63176;52.678;13.250;2023-09-12T05:35:15;16.70;99.90
7290;DHT22;63176;52.678;13.250;2023-09-12T05:37:40;16.80;99.90
7290;DHT22;63176;52.678;13.250;2023-09-12T05:40:06;16.80;99.90
7290;DHT22;63176;52.678;13.250;2023-09-12T05:42:32;16.90;99.90
7290;DHT22;63176;52.678;13.250;2023-09-12T05:44:58;17.00;99.90
7290;DHT22;63176;52.678;13.250;2023-09-12T05:47:23;17.10;99.90
7290;DHT22;63176;52.678;13.250;2023-09-12T05:49:49;17.20;99.90
7290;DHT22;63176;52.678;13.250;2023-09-12T05:52:15;17.40;99.90
7290;DHT22;63176;52.678;13.250;2023-09-12T05:54:41;17.40;99.90
7290;DHT22;63176;52.678;13.250;2023-09-12T05:57:08;17.50;99.90
7290;DHT22;63176;52.678;13.250;2023-09-12T05:59:38;17.50;99.90
7290;DHT22;63176;52.678;13.250;2023-09-12T06:02:05;17.60;99.90
7290;DHT22;63176;52.678;13.250;2023-09-12T06:04:32;17.70;99.90
7290;DHT22;63176;52.678;13.250;2023-09-12T06:06:58;17.80;99.90
7290;DHT22;63176;52.678;13.250;2023-09-12T06:09:24;17.80;99.90
7290;DHT22;63176;52.678;13.250;2023-09-12T06:11:50;17.90;99.90
7290;DHT22;63176;52.678;13.250;2023-09-12T06:14:16;18.00;99.90
7290;DHT22;63176;52.678;13.250;2023-09-12T06:16:42;18.00;99.90
7290;DHT22;63176;52.678;13.250;2023-09-12T06:19:07;18.00;99.90
7290;DHT22;63176;52.678;13.250;2023-09-12T06:21:33;18.00;99.90
7290;DHT22;63176;52.678;13.250;2023-09-12T06:26:35;18.10;99.90
7290;DHT22;63176;52.678;13.250;2023-09-12T06:29:01;18.20;99.90
7290;DHT22;63176;52.678;13.250;2023-09-12T06:31:28;18.30;99.90
7290;DHT22;63176;52.678;13.250;2023-09-12T06:33:53;18.30;99.90
7290;DHT22;63176;52.678;13.250;2023-09-12T06:36:19;18.40;99.90
7290;DHT22;63176;52.678;13.250;2023-09-12T06:38:45;18.50;99.90
7290;DHT22;63176;52.678;13.250;2023-09-12T06:41:10;18.60;99.90
7290;DHT22;63176;52.678;13.250;2023-09-12T06:43:36;18.70;99.90
7290;DHT22;63176;52.678;13.250;2023-09-12T06:46:01;18.80;99.90
7290;DHT22;63176;52.678;13.250;2023-09-12T06:48:27;19.00;99.90
7290;DHT22;63176;52.678;13.250;2023-09-12T06:50:54;19.10;99.90
7290;DHT22;63176;52.678;13.250;2023-09-12T06:53:20;19.20;99.90
7290;DHT22;63176;52.678;13.250;2023-09-12T06:55:46;19.30;99.90
7290;DHT22;63176;52.678;13.250;2023-09-12T06:58:12;19.40;99.90
7290;DHT22;63176;52.678;13.250;2023-09-12T07:00:38;19.50;99.90
7290;DHT22;63176;52.678;13.250;2023-09-12T07:03:04;19.60;99.90
7290;DHT22;63176;52.678;13.250;2023-09-12T07:05:29;19.70;99.90
7290;DHT22;63176;52.678;13.250;2023-09-12T07:07:55;19.80;99.90
7290;DHT22;63176;52.678;13.250;2023-09-12T07:10:20;20.00;99.90
7290;DHT22;63176;52.678;13.250;2023-09-12T07:12:46;20.00;99.90
7290;DHT22;63176;52.678;13.250;2023-09-12T07:15:12;20.20;99.90
7290;DHT22;63176;52.678;13.250;2023-09-12T07:17:38;20.30;99.90
7290;DHT22;63176;52.678;13.250;2023-09-12T07:20:05;20.30;99.90
7290;DHT22;63176;52.678;13.250;2023-09-12T07:22:35;20.40;99.90
7290;DHT22;63176;52.678;13.250;2023-09-12T07:25:00;20.60;99.90
7290;DHT22;63176;52.678;13.250;2023-09-12T07:27:27;20.60;99.90
7290;DHT22;63176;52.678;13.250;2023-09-12T07:29:53;20.80;99.90
7290;DHT22;63176;52.678;13.250;2023-09-12T07:32:18;20.90;99.90
7290;DHT22;63176;52.678;13.250;2023-09-12T07:34:45;21.00;99.90
7290;DHT22;63176;52.678;13.250;2023-09-12T07:37:14;21.10;99.90
7290;DHT22;63176;52.678;13.250;2023-09-12T07:39:39;21.20;99.90
7290;DHT22;63176;52.678;13.250;2023-09-12T07:42:05;21.30;99.90
7290;DHT22;63176;52.678;13.250;2023-09-12T07:44:31;21.40;99.90
7290;DHT22;63176;52.678;13.250;2023-09-12T07:46:56;21.50;99.90
7290;DHT22;63176;52.678;13.250;2023-09-12T07:49:22;21.50;99.90
7290;DHT22;63176;52.678;13.250;2023-09-12T07:51:49;21.60;99.90
7290;DHT22;63176;52.678;13.250;2023-09-12T07:54:15;21.70;99.90
7290;DHT22;63176;52.678;13.250;2023-09-12T07:56:43;21.80;99.90
7290;DHT22;63176;52.678;13.250;2023-09-12T07:59:09;21.80;99.90
7290;DHT22;63176;52.678;13.250;2023-09-12T08:01:35;21.90;99.90
7290;DHT22;63176;52.678;13.250;2023-09-12T08:04:01;22.00;99.90
7290;DHT22;63176;52.678;13.250;2023-09-12T08:06:26;22.10;99.90
7290;DHT22;63176;52.678;13.250;2023-09-12T08:08:52;22.10;99.90
7290;DHT22;63176;52.678;13.250;2023-09-12T08:11:18;22.20;99.90
7290;DHT22;63176;52.678;13.250;2023-09-12T08:13:48;22.20;99.90
7290;DHT22;63176;52.678;13.250;2023-09-12T08:16:14;22.30;99.90
7290;DHT22;63176;52.678;13.250;2023-09-12T08:18:39;22.40;99.90
7290;DHT22;63176;52.678;13.250;2023-09-12T08:21:05;22.50;99.90
7290;DHT22;63176;52.678;13.250;2023-09-12T08:23:30;22.60;99.90
7290;DHT22;63176;52.678;13.250;2023-09-12T08:25:56;22.70;99.90
7290;DHT22;63176;52.678;13.250;2023-09-12T08:28:22;22.80;99.90
7290;DHT22;63176;52.678;13.250;2023-09-12T08:30:47;22.90;99.90
7290;DHT22;63176;52.678;13.250;2023-09-12T08:33:14;23.00;99.90
7290;DHT22;63176;52.678;13.250;2023-09-12T08:35:40;23.20;99.90
7290;DHT22;63176;52.678;13.250;2023-09-12T08:38:06;23.20;99.90
7290;DHT22;63176;52.678;13.250;2023-09-12T08:40:32;23.30;99.90
7290;DHT22;63176;52.678;13.250;2023-09-12T08:42:59;23.40;99.90
7290;DHT22;63176;52.678;13.250;2023-09-12T08:45:24;23.50;99.90
7290;DHT22;63176;52.678;13.250;2023-09-12T08:47:52;23.70;99.90
7290;DHT22;63176;52.678;13.250;2023-09-12T08:50:19;23.80;99.90
7290;DHT22;63176;52.678;13.250;2023-09-12T08:52:47;23.90;99.90
7290;DHT22;63176;52.678;13.250;2023-09-12T08:55:13;24.10;99.90
7290;DHT22;63176;52.678;13.250;2023-09-12T08:57:43;24.30;99.90
7290;DHT22;63176;52.678;13.250;2023-09-12T09:00:10;24.50;99.90
7290;DHT22;63176;52.678;13.250;2023-09-12T09:02:40;24.70;99.90
7290;DHT22;63176;52.678;13.250;2023-09-12T09:05:07;24.80;99.90
7290;DHT22;63176;52.678;13.250;2023-09-12T09:07:38;25.10;99.90
7290;DHT22;63176;52.678;13.250;2023-09-12T09:10:06;25.20;99.90
7290;DHT22;63176;52.678;13.250;2023-09-12T09:12:32;25.30;99.90
7290;DHT22;63176;52.678;13.250;2023-09-12T09:14:58;25.50;99.90
7290;DHT22;63176;52.678;13.250;2023-09-12T09:17:25;25.70;99.90
7290;DHT22;63176;52.678;13.250;2023-09-12T09:19:51;25.80;99.90
7290;DHT22;63176;52.678;13.250;2023-09-12T09:22:17;26.10;99.90
7290;DHT22;63176;52.678;13.250;2023-09-12T09:24:42;26.40;99.90
7290;DHT22;63176;52.678;13.250;2023-09-12T09:27:08;27.00;99.90
7290;DHT22;63176;52.678;13.250;2023-09-12T09:29:46;27.50;99.90
7290;DHT22;63176;52.678;13.250;2023-09-12T09:32:17;28.00;99.90
7290;DHT22;63176;52.678;13.250;2023-09-12T09:34:43;28.60;99.90
7290;DHT22;63176;52.678;13.250;2023-09-12T09:37:09;28.90;99.90
7290;DHT22;63176;52.678;13.250;2023-09-12T09:39:35;29.10;99.90
7290;DHT22;63176;52.678;13.250;2023-09-12T09:42:01;28.80;99.90
7290;DHT22;63176;52.678;13.250;2023-09-12T09:44:27;28.50;99.90
7290;DHT22;63176;52.678;13.250;2023-09-12T09:46:59;28.10;99.90
7290;DHT22;63176;52.678;13.250;2023-09-12T09:49:30;27.90;99.90
7290;DHT22;63176;52.678;13.250;2023-09-12T09:51:56;27.80;99.90
7290;DHT22;63176;52.678;13.250;2023-09-12T09:54:25;27.90;99.90
7290;DHT22;63176;52.678;13.250;2023-09-12T09:56:55;28.00;99.90
7290;DHT22;63176;52.678;13.250;2023-09-12T09:59:23;28.10;99.90
7290;DHT22;63176;52.678;13.250;2023-09-12T10:01:50;28.30;99.90
7290;DHT22;63176;52.678;13.250;2023-09-12T10:04:18;28.40;99.90
7290;DHT22;63176;52.678;13.250;2023-09-12T10:06:46;28.60;99.90
7290;DHT22;63176;52.678;13.250;2023-09-12T10:09:16;28.60;99.90
7290;DHT22;63176;52.678;13.250;2023-09-12T10:11:46;28.70;99.90
7290;DHT22;63176;52.678;13.250;2023-09-12T10:14:15;28.80;99.90
7290;DHT22;63176;52.678;13.250;2023-09-12T10:16:47;28.80;99.90
7290;DHT22;63176;52.678;13.250;2023-09-12T10:19:23;29.00;99.90
7290;DHT22;63176;52.678;13.250;2023-09-12T10:22:07;29.10;99.90
7290;DHT22;63176;52.678;13.250;2023-09-12T10:24:35;29.20;99.90
7290;DHT22;63176;52.678;13.250;2023-09-12T10:27:02;29.20;99.90
7290;DHT22;63176;52.678;13.250;2023-09-12T10:29:29;29.20;99.90
7290;DHT22;63176;52.678;13.250;2023-09-12T10:31:56;29.30;99.90
7290;DHT22;63176;52.678;13.250;2023-09-12T10:34:24;29.50;99.90
7290;DHT22;63176;52.678;13.250;2023-09-12T10:36:51;29.50;99.90
7290;DHT22;63176;52.678;13.250;2023-09-12T10:39:19;29.60;99.90
7290;DHT22;63176;52.678;13.250;2023-09-12T10:41:46;29.60;99.90
7290;DHT22;63176;52.678;13.250;2023-09-12T10:44:16;29.60;99.90
7290;DHT22;63176;52.678;13.250;2023-09-12T10:46:44;29.60;99.90
7290;DHT22;63176;52.678;13.250;2023-09-12T10:49:11;29.60;99.90
7290;DHT22;63176;52.678;13.250;2023-09-12T10:51:39;29.70;99.90
7290;DHT22;63176;52.678;13.250;2023-09-12T10:54:06;29.80;99.90
7290;DHT22;63176;52.678;13.250;2023-09-12T10:56:33;29.80;99.90
7290;DHT22;63176;52.678;13.250;2023-09-12T11:01:35;29.80;99.90
7290;DHT22;63176;52.678;13.250;2023-09-12T11:06:46;29.70;99.90
7290;DHT22;63176;52.678;13.250;2023-09-12T11:11:41;29.50;99.90
7290;DHT22;63176;52.678;13.250;2023-09-12T11:14:08;29.60;99.90
7290;DHT22;63176;52.678;13.250;2023-09-12T11:16:34;29.60;99.90
7290;DHT22;63176;52.678;13.250;2023-09-12T11:19:20;29.60;99.90
7290;DHT22;63176;52.678;13.250;2023-09-12T11:21:50;29.60;99.90
7290;DHT22;63176;52.678;13.250;2023-09-12T11:24:17;29.40;99.90
7290;DHT22;63176;52.678;13.250;2023-09-12T11:26:54;29.50;99.90
7290;DHT22;63176;52.678;13.250;2023-09-12T11:29:19;29.60;99.90
7290;DHT22;63176;52.678;13.250;2023-09-12T11:31:59;29.70;99.90
7290;DHT22;63176;52.678;13.250;2023-09-12T11:34:25;29.80;99.90
7290;DHT22;63176;52.678;13.250;2023-09-12T11:36:58;29.90;99.90
7290;DHT22;63176;52.678;13.250;2023-09-12T11:39:30;29.90;99.90
7290;DHT22;63176;52.678;13.250;2023-09-12T11:41:57;29.90;99.90
7290;DHT22;63176;52.678;13.250;2023-09-12T11:44:23;30.00;99.90
7290;DHT22;63176;52.678;13.250;2023-09-12T11:46:49;30.10;99.90
7290;DHT22;63176;52.678;13.250;2023-09-12T11:49:16;30.20;99.90
7290;DHT22;63176;52.678;13.250;2023-09-12T11:51:53;30.20;99.90
7290;DHT22;63176;52.678;13.250;2023-09-12T11:54:26;30.20;99.90
7290;DHT22;63176;52.678;13.250;2023-09-12T11:56:52;30.40;99.90
7290;DHT22;63176;52.678;13.250;2023-09-12T11:59:28;30.40;99.90
7290;DHT22;63176;52.678;13.250;2023-09-12T12:01:55;30.50;99.90
7290;DHT22;63176;52.678;13.250;2023-09-12T12:04:22;30.60;99.90
7290;DHT22;63176;52.678;13.250;2023-09-12T12:06:51;30.60;99.90
7290;DHT22;63176;52.678;13.250;2023-09-12T12:09:18;30.60;99.90
7290;DHT22;63176;52.678;13.250;2023-09-12T12:11:46;30.70;99.90
7290;DHT22;63176;52.678;13.250;2023-09-12T12:14:12;30.70;99.90
7290;DHT22;63176;52.678;13.250;2023-09-12T12:16:39;30.70;99.90
7290;DHT22;63176;52.678;13.250;2023-09-12T12:19:05;30.80;99.90
7290;DHT22;63176;52.678;13.250;2023-09-12T12:21:30;30.90;99.90
7290;DHT22;63176;52.678;13.250;2023-09-12T12:24:03;30.90;99.90
7290;DHT22;63176;52.678;13.250;2023-09-12T12:26:33;31.00;99.90
7290;DHT22;63176;52.678;13.250;2023-09-12T12:29:00;31.20;99.90
7290;DHT22;63176;52.678;13.250;2023-09-12T12:31:26;31.30;99.90
7290;DHT22;63176;52.678;13.250;2023-09-12T12:33:56;31.50;99.90
7290;DHT22;63176;52.678;13.250;2023-09-12T12:36:22;31.70;99.90
7290;DHT22;63176;52.678;13.250;2023-09-12T12:38:49;31.90;99.90
7290;DHT22;63176;52.678;13.250;2023-09-12T12:41:23;31.90;99.90
7290;DHT22;63176;52.678;13.250;2023-09-12T12:43:50;32.30;99.90
7290;DHT22;63176;52.678;13.250;2023-09-12T12:46:20;32.50;99.90
7290;DHT22;63176;52.678;13.250;2023-09-12T12:48:49;32.90;99.90
7290;DHT22;63176;52.678;13.250;2023-09-12T12:53:53;33.80;99.90
7290;DHT22;63176;52.678;13.250;2023-09-12T12:56:21;34.60;99.90
7290;DHT22;63176;52.678;13.250;2023-09-12T12:58:51;35.10;99.90
7290;DHT22;63176;52.678;13.250;2023-09-12T13:01:18;35.70;99.90
7290;DHT22;63176;52.678;13.250;2023-09-12T13:03:43;36.30;99.90
7290;DHT22;63176;52.678;13.250;2023-09-12T13:06:10;36.70;99.90
7290;DHT22;63176;52.678;13.250;2023-09-12T13:08:44;37.30;99.90
7290;DHT22;63176;52.678;13.250;2023-09-12T13:11:10;37.70;99.90
7290;DHT22;63176;52.678;13.250;2023-09-12T13:13:37;37.70;99.90
7290;DHT22;63176;52.678;13.250;2023-09-12T13:16:07;37.40;99.90
7290;DHT22;63176;52.678;13.250;2023-09-12T13:18:35;37.50;99.90
7290;DHT22;63176;52.678;13.250;2023-09-12T13:21:01;37.50;99.90
7290;DHT22;63176;52.678;13.250;2023-09-12T13:23:28;38.40;99.90
7290;DHT22;63176;52.678;13.250;2023-09-12T13:25:54;38.50;99.90
7290;DHT22;63176;52.678;13.250;2023-09-12T13:28:19;38.50;99.90
7290;DHT22;63176;52.678;13.250;2023-09-12T13:30:45;38.80;99.90
7290;DHT22;63176;52.678;13.250;2023-09-12T13:33:12;38.70;99.90
7290;DHT22;63176;52.678;13.250;2023-09-12T13:35:41;38.20;99.90
7290;DHT22;63176;52.678;13.250;2023-09-12T13:38:07;38.00;99.90
7290;DHT22;63176;52.678;13.250;2023-09-12T13:40:41;38.30;99.90
7290;DHT22;63176;52.678;13.250;2023-09-12T13:43:07;37.80;99.90
7290;DHT22;63176;52.678;13.250;2023-09-12T13:45:34;38.10;99.90
7290;DHT22;63176;52.678;13.250;2023-09-12T13:48:04;38.40;99.90
7290;DHT22;63176;52.678;13.250;2023-09-12T13:50:30;38.50;99.90
7290;DHT22;63176;52.678;13.250;2023-09-12T13:53:00;38.40;99.90
7290;DHT22;63176;52.678;13.250;2023-09-12T13:55:29;37.40;99.90
7290;DHT22;63176;52.678;13.250;2023-09-12T13:57:55;36.20;99.90
7290;DHT22;63176;52.678;13.250;2023-09-12T14:00:20;35.20;99.90
7290;DHT22;63176;52.678;13.250;2023-09-12T14:02:46;34.40;99.90
7290;DHT22;63176;52.678;13.250;2023-09-12T14:05:12;34.10;99.90
7290;DHT22;63176;52.678;13.250;2023-09-12T14:07:38;33.40;99.90
7290;DHT22;63176;52.678;13.250;2023-09-12T14:10:09;32.60;99.90
7290;DHT22;63176;52.678;13.250;2023-09-12T14:12:35;32.20;99.90
7290;DHT22;63176;52.678;13.250;2023-09-12T14:15:01;31.80;99.90
7290;DHT22;63176;52.678;13.250;2023-09-12T14:17:28;31.30;99.90
7290;DHT22;63176;52.678;13.250;2023-09-12T14:19:55;30.90;99.90
7290;DHT22;63176;52.678;13.250;2023-09-12T14:22:20;30.40;99.90
7290;DHT22;63176;52.678;13.250;2023-09-12T14:24:47;30.10;99.90
7290;DHT22;63176;52.678;13.250;2023-09-12T14:27:12;29.90;99.90
7290;DHT22;63176;52.678;13.250;2023-09-12T14:29:38;29.60;99.90
7290;DHT22;63176;52.678;13.250;2023-09-12T14:32:04;29.40;99.90
7290;DHT22;63176;52.678;13.250;2023-09-12T14:34:30;29.30;99.90
7290;DHT22;63176;52.678;13.250;2023-09-12T14:36:57;29.20;99.90
7290;DHT22;63176;52.678;13.250;2023-09-12T14:39:23;29.00;99.90
7290;DHT22;63176;52.678;13.250;2023-09-12T14:41:49;28.90;99.90
7290;DHT22;63176;52.678;13.250;2023-09-12T14:44:24;28.70;99.90
7290;DHT22;63176;52.678;13.250;2023-09-12T14:46:49;28.70;99.90
7290;DHT22;63176;52.678;13.250;2023-09-12T14:49:16;28.70;99.90
7290;DHT22;63176;52.678;13.250;2023-09-12T14:51:42;28.60;99.90
7290;DHT22;63176;52.678;13.250;2023-09-12T14:54:08;28.60;99.90
7290;DHT22;63176;52.678;13.250;2023-09-12T14:56:35;28.60;99.90
7290;DHT22;63176;52.678;13.250;2023-09-12T14:59:01;28.50;99.90
7290;DHT22;63176;52.678;13.250;2023-09-12T15:01:28;28.50;99.90
7290;DHT22;63176;52.678;13.250;2023-09-12T15:03:53;28.50;99.90
7290;DHT22;63176;52.678;13.250;2023-09-12T15:06:19;28.40;99.90
7290;DHT22;63176;52.678;13.250;2023-09-12T15:08:45;28.30;99.90
7290;DHT22;63176;52.678;13.250;2023-09-12T15:11:11;28.30;99.90
7290;DHT22;63176;52.678;13.250;2023-09-12T15:13:37;28.30;99.90
7290;DHT22;63176;52.678;13.250;2023-09-12T15:16:03;28.20;99.90
7290;DHT22;63176;52.678;13.250;2023-09-12T15:18:32;28.20;99.90
7290;DHT22;63176;52.678;13.250;2023-09-12T15:20:58;28.00;99.90
7290;DHT22;63176;52.678;13.250;2023-09-12T15:23:24;27.90;99.90
7290;DHT22;63176;52.678;13.250;2023-09-12T15:25:50;27.90;99.90
7290;DHT22;63176;52.678;13.250;2023-09-12T15:28:16;27.80;99.90
7290;DHT22;63176;52.678;13.250;2023-09-12T15:30:42;27.80;99.90
7290;DHT22;63176;52.678;13.250;2023-09-12T15:33:08;27.80;99.90
7290;DHT22;63176;52.678;13.250;2023-09-12T15:35:34;27.80;99.90
7290;DHT22;63176;52.678;13.250;2023-09-12T15:37:59;27.80;99.90
7290;DHT22;63176;52.678;13.250;2023-09-12T15:40:26;27.70;99.90
7290;DHT22;63176;52.678;13.250;2023-09-12T15:42:52;27.70;99.90
7290;DHT22;63176;52.678;13.250;2023-09-12T15:45:17;27.60;99.90